Roubaix, South Dakota
Current Conditions -  °F | °C
As of 3:55 AM on Monday 22 Dec 2014 (Local Time) from KSPF Reporting Station
Overcast Overcast  
Wind Chill: 23°   Ceiling: 6000
Heat Index: 36°   Visibility: 10mi
Dew Point: 27°   Wind: 25mph
Humidity: 70%   Direction: 280°W
Pressure: 29.56"   Gusts: 39mph
Location:  44.2665°N, 103.672°W
Report Text: KSPF 221055Z AUTO 28022G34KT 10SM BKN060 OVC085 02/M03 A2956 RMK AO2
Loading
Personal Weather Stations






























Interactive Weather Map New forecast layout! Learn more

10-Day Weather Forecast

Advertisements
Track Severe Weather on mobile